sensor_id;sensor_type;location;lat;lon;timestamp;temperature;humidity
4187;DHT22;2107;52.306;10.484;2022-08-19T00:00:10;20.30;99.90
4187;DHT22;2107;52.306;10.484;2022-08-19T00:02:39;20.30;99.90
4187;DHT22;2107;52.306;10.484;2022-08-19T00:05:08;20.20;99.90
4187;DHT22;2107;52.306;10.484;2022-08-19T00:07:35;20.20;99.90
4187;DHT22;2107;52.306;10.484;2022-08-19T00:10:03;20.30;99.90
4187;DHT22;2107;52.306;10.484;2022-08-19T00:12:32;20.30;99.90
4187;DHT22;2107;52.306;10.484;2022-08-19T00:14:59;20.20;99.90
4187;DHT22;2107;52.306;10.484;2022-08-19T00:17:27;20.20;99.90
4187;DHT22;2107;52.306;10.484;2022-08-19T00:19:53;20.20;99.90
4187;DHT22;2107;52.306;10.484;2022-08-19T00:22:20;20.10;99.90
4187;DHT22;2107;52.306;10.484;2022-08-19T00:24:47;20.00;99.90
4187;DHT22;2107;52.306;10.484;2022-08-19T00:27:14;20.00;99.90
4187;DHT22;2107;52.306;10.484;2022-08-19T00:29:43;20.00;99.90
4187;DHT22;2107;52.306;10.484;2022-08-19T00:32:10;20.00;99.90
4187;DHT22;2107;52.306;10.484;2022-08-19T00:34:37;19.90;99.90
4187;DHT22;2107;52.306;10.484;2022-08-19T00:37:04;19.90;99.90
4187;DHT22;2107;52.306;10.484;2022-08-19T00:39:31;19.90;99.90
4187;DHT22;2107;52.306;10.484;2022-08-19T00:41:58;19.90;99.90
4187;DHT22;2107;52.306;10.484;2022-08-19T00:44:27;19.90;99.90
4187;DHT22;2107;52.306;10.484;2022-08-19T00:46:57;19.90;99.90
4187;DHT22;2107;52.306;10.484;2022-08-19T00:49:29;19.90;99.90
4187;DHT22;2107;52.306;10.484;2022-08-19T00:52:00;19.90;99.90
4187;DHT22;2107;52.306;10.484;2022-08-19T00:54:27;19.90;99.90
4187;DHT22;2107;52.306;10.484;2022-08-19T00:56:55;19.90;99.90
4187;DHT22;2107;52.306;10.484;2022-08-19T00:59:22;19.80;99.90
4187;DHT22;2107;52.306;10.484;2022-08-19T01:01:49;19.90;99.90
4187;DHT22;2107;52.306;10.484;2022-08-19T01:04:18;19.90;99.90
4187;DHT22;2107;52.306;10.484;2022-08-19T01:06:45;19.80;99.90
4187;DHT22;2107;52.306;10.484;2022-08-19T01:09:12;19.70;99.90
4187;DHT22;2107;52.306;10.484;2022-08-19T01:11:41;19.80;99.90
4187;DHT22;2107;52.306;10.484;2022-08-19T01:14:10;19.80;99.90
4187;DHT22;2107;52.306;10.484;2022-08-19T01:16:38;19.80;99.90
4187;DHT22;2107;52.306;10.484;2022-08-19T01:19:10;19.70;99.90
4187;DHT22;2107;52.306;10.484;2022-08-19T01:21:43;19.70;99.90
4187;DHT22;2107;52.306;10.484;2022-08-19T01:24:14;19.60;99.90
4187;DHT22;2107;52.306;10.484;2022-08-19T01:26:45;19.60;99.90
4187;DHT22;2107;52.306;10.484;2022-08-19T01:29:12;19.60;99.90
4187;DHT22;2107;52.306;10.484;2022-08-19T01:31:39;19.70;99.90
4187;DHT22;2107;52.306;10.484;2022-08-19T01:34:07;19.60;99.90
4187;DHT22;2107;52.306;10.484;2022-08-19T01:36:36;19.60;99.90
4187;DHT22;2107;52.306;10.484;2022-08-19T01:39:06;19.50;99.90
4187;DHT22;2107;52.306;10.484;2022-08-19T01:41:36;19.50;99.90
4187;DHT22;2107;52.306;10.484;2022-08-19T01:44:04;19.50;99.90
4187;DHT22;2107;52.306;10.484;2022-08-19T01:46:31;19.50;99.90
4187;DHT22;2107;52.306;10.484;2022-08-19T01:48:59;19.50;99.90
4187;DHT22;2107;52.306;10.484;2022-08-19T01:51:26;19.40;99.90
4187;DHT22;2107;52.306;10.484;2022-08-19T01:53:53;19.30;99.90
4187;DHT22;2107;52.306;10.484;2022-08-19T01:56:21;19.30;99.90
4187;DHT22;2107;52.306;10.484;2022-08-19T01:58:52;19.30;99.90
4187;DHT22;2107;52.306;10.484;2022-08-19T02:01:20;19.30;99.90
4187;DHT22;2107;52.306;10.484;2022-08-19T02:03:47;19.20;99.90
4187;DHT22;2107;52.306;10.484;2022-08-19T02:06:14;19.20;99.90
4187;DHT22;2107;52.306;10.484;2022-08-19T02:08:42;19.20;99.90
4187;DHT22;2107;52.306;10.484;2022-08-19T02:11:19;19.20;99.90
4187;DHT22;2107;52.306;10.484;2022-08-19T02:13:48;19.10;99.90
4187;DHT22;2107;52.306;10.484;2022-08-19T02:16:16;19.00;99.90
4187;DHT22;2107;52.306;10.484;2022-08-19T02:18:44;19.00;99.90
4187;DHT22;2107;52.306;10.484;2022-08-19T02:21:11;19.00;99.90
4187;DHT22;2107;52.306;10.484;2022-08-19T02:23:38;19.00;99.90
4187;DHT22;2107;52.306;10.484;2022-08-19T02:26:05;19.10;99.90
4187;DHT22;2107;52.306;10.484;2022-08-19T02:28:32;19.10;99.90
4187;DHT22;2107;52.306;10.484;2022-08-19T02:31:01;19.20;99.90
4187;DHT22;2107;52.306;10.484;2022-08-19T02:33:28;19.20;99.90
4187;DHT22;2107;52.306;10.484;2022-08-19T02:35:55;19.20;99.90
4187;DHT22;2107;52.306;10.484;2022-08-19T02:38:22;19.10;99.90
4187;DHT22;2107;52.306;10.484;2022-08-19T02:40:53;19.10;99.90
4187;DHT22;2107;52.306;10.484;2022-08-19T02:43:20;19.10;99.90
4187;DHT22;2107;52.306;10.484;2022-08-19T02:45:48;19.10;99.90
4187;DHT22;2107;52.306;10.484;2022-08-19T02:48:17;19.00;99.90
4187;DHT22;2107;52.306;10.484;2022-08-19T02:50:45;19.00;99.90
4187;DHT22;2107;52.306;10.484;2022-08-19T02:53:12;19.00;99.90
4187;DHT22;2107;52.306;10.484;2022-08-19T02:55:43;19.00;99.90
4187;DHT22;2107;52.306;10.484;2022-08-19T02:58:11;18.90;99.90
4187;DHT22;2107;52.306;10.484;2022-08-19T03:00:42;18.80;99.90
4187;DHT22;2107;52.306;10.484;2022-08-19T03:03:09;18.80;99.90
4187;DHT22;2107;52.306;10.484;2022-08-19T03:05:38;18.70;99.90
4187;DHT22;2107;52.306;10.484;2022-08-19T03:08:06;18.70;99.90
4187;DHT22;2107;52.306;10.484;2022-08-19T03:10:40;18.70;99.90
4187;DHT22;2107;52.306;10.484;2022-08-19T03:13:09;18.60;99.90
4187;DHT22;2107;52.306;10.484;2022-08-19T03:15:40;18.60;99.90
4187;DHT22;2107;52.306;10.484;2022-08-19T03:18:07;18.60;99.90
4187;DHT22;2107;52.306;10.484;2022-08-19T03:20:34;18.60;99.90
4187;DHT22;2107;52.306;10.484;2022-08-19T03:23:07;18.60;99.90
4187;DHT22;2107;52.306;10.484;2022-08-19T03:25:37;18.50;99.90
4187;DHT22;2107;52.306;10.484;2022-08-19T03:28:05;18.40;99.90
4187;DHT22;2107;52.306;10.484;2022-08-19T03:30:32;18.50;99.90
4187;DHT22;2107;52.306;10.484;2022-08-19T03:32:59;18.50;99.90
4187;DHT22;2107;52.306;10.484;2022-08-19T03:35:27;18.50;99.90
4187;DHT22;2107;52.306;10.484;2022-08-19T03:37:54;18.40;99.90
4187;DHT22;2107;52.306;10.484;2022-08-19T03:40:23;18.40;99.90
4187;DHT22;2107;52.306;10.484;2022-08-19T03:42:50;18.40;99.90
4187;DHT22;2107;52.306;10.484;2022-08-19T03:45:17;18.30;99.90
4187;DHT22;2107;52.306;10.484;2022-08-19T03:47:45;18.40;99.90
4187;DHT22;2107;52.306;10.484;2022-08-19T03:50:12;18.30;99.90
4187;DHT22;2107;52.306;10.484;2022-08-19T03:52:39;18.30;99.90
4187;DHT22;2107;52.306;10.484;2022-08-19T03:55:07;18.40;99.90
4187;DHT22;2107;52.306;10.484;2022-08-19T03:57:35;18.30;99.90
4187;DHT22;2107;52.306;10.484;2022-08-19T04:00:03;18.20;99.90
4187;DHT22;2107;52.306;10.484;2022-08-19T04:02:32;18.20;99.90
4187;DHT22;2107;52.306;10.484;2022-08-19T04:04:59;18.20;99.90
4187;DHT22;2107;52.306;10.484;2022-08-19T04:07:26;18.10;99.90
4187;DHT22;2107;52.306;10.484;2022-08-19T04:09:53;18.10;99.90
4187;DHT22;2107;52.306;10.484;2022-08-19T04:12:20;18.10;99.90
4187;DHT22;2107;52.306;10.484;2022-08-19T04:14:48;18.10;99.90
4187;DHT22;2107;52.306;10.484;2022-08-19T04:17:15;18.00;99.90
4187;DHT22;2107;52.306;10.484;2022-08-19T04:19:42;18.00;99.90
4187;DHT22;2107;52.306;10.484;2022-08-19T04:22:10;18.00;99.90
4187;DHT22;2107;52.306;10.484;2022-08-19T04:24:38;18.00;99.90
4187;DHT22;2107;52.306;10.484;2022-08-19T04:27:05;17.90;99.90
4187;DHT22;2107;52.306;10.484;2022-08-19T04:29:32;17.90;99.90
4187;DHT22;2107;52.306;10.484;2022-08-19T04:32:01;17.90;99.90
4187;DHT22;2107;52.306;10.484;2022-08-19T04:34:29;17.90;99.90
4187;DHT22;2107;52.306;10.484;2022-08-19T04:36:57;17.90;99.90
4187;DHT22;2107;52.306;10.484;2022-08-19T04:39:26;17.90;99.90
4187;DHT22;2107;52.306;10.484;2022-08-19T04:42:13;17.90;99.90
4187;DHT22;2107;52.306;10.484;2022-08-19T04:44:58;17.90;99.90
4187;DHT22;2107;52.306;10.484;2022-08-19T04:47:26;17.90;99.90
4187;DHT22;2107;52.306;10.484;2022-08-19T04:49:53;17.80;99.90
4187;DHT22;2107;52.306;10.484;2022-08-19T04:52:20;17.80;99.90
4187;DHT22;2107;52.306;10.484;2022-08-19T04:54:47;17.80;99.90
4187;DHT22;2107;52.306;10.484;2022-08-19T04:57:14;17.80;99.90
4187;DHT22;2107;52.306;10.484;2022-08-19T04:59:41;17.80;99.90
4187;DHT22;2107;52.306;10.484;2022-08-19T05:02:09;17.80;99.90
4187;DHT22;2107;52.306;10.484;2022-08-19T05:04:37;17.80;99.90
4187;DHT22;2107;52.306;10.484;2022-08-19T05:07:05;17.70;99.90
4187;DHT22;2107;52.306;10.484;2022-08-19T05:09:32;17.70;99.90
4187;DHT22;2107;52.306;10.484;2022-08-19T05:11:59;17.70;99.90
4187;DHT22;2107;52.306;10.484;2022-08-19T05:14:26;17.60;99.90
4187;DHT22;2107;52.306;10.484;2022-08-19T05:16:54;17.50;99.90
4187;DHT22;2107;52.306;10.484;2022-08-19T05:19:21;17.50;99.90
4187;DHT22;2107;52.306;10.484;2022-08-19T05:22:06;17.60;99.90
4187;DHT22;2107;52.306;10.484;2022-08-19T05:24:51;17.60;99.90
4187;DHT22;2107;52.306;10.484;2022-08-19T05:27:18;17.60;99.90
4187;DHT22;2107;52.306;10.484;2022-08-19T05:29:45;17.60;99.90
4187;DHT22;2107;52.306;10.484;2022-08-19T05:32:12;17.60;99.90
4187;DHT22;2107;52.306;10.484;2022-08-19T05:34:39;17.60;99.90
4187;DHT22;2107;52.306;10.484;2022-08-19T05:37:08;17.60;99.90
4187;DHT22;2107;52.306;10.484;2022-08-19T05:39:37;17.70;99.90
4187;DHT22;2107;52.306;10.484;2022-08-19T05:42:06;17.70;99.90
4187;DHT22;2107;52.306;10.484;2022-08-19T05:44:36;17.70;99.90
4187;DHT22;2107;52.306;10.484;2022-08-19T05:47:06;17.70;99.90
4187;DHT22;2107;52.306;10.484;2022-08-19T05:49:34;17.70;99.90
4187;DHT22;2107;52.306;10.484;2022-08-19T05:52:03;17.90;99.90
4187;DHT22;2107;52.306;10.484;2022-08-19T05:54:32;18.00;99.90
4187;DHT22;2107;52.306;10.484;2022-08-19T05:57:00;18.20;99.90
4187;DHT22;2107;52.306;10.484;2022-08-19T05:59:28;18.30;99.90
4187;DHT22;2107;52.306;10.484;2022-08-19T06:01:55;18.40;99.90
4187;DHT22;2107;52.306;10.484;2022-08-19T06:04:23;18.40;99.90
4187;DHT22;2107;52.306;10.484;2022-08-19T06:06:52;18.40;99.90
4187;DHT22;2107;52.306;10.484;2022-08-19T06:09:20;18.40;99.90
4187;DHT22;2107;52.306;10.484;2022-08-19T06:11:50;18.50;99.90
4187;DHT22;2107;52.306;10.484;2022-08-19T06:14:22;18.70;99.90
4187;DHT22;2107;52.306;10.484;2022-08-19T06:16:50;18.60;99.90
4187;DHT22;2107;52.306;10.484;2022-08-19T06:19:20;18.70;99.90
4187;DHT22;2107;52.306;10.484;2022-08-19T06:21:49;18.80;99.90
4187;DHT22;2107;52.306;10.484;2022-08-19T06:24:18;18.80;99.90
4187;DHT22;2107;52.306;10.484;2022-08-19T06:26:48;18.90;99.90
4187;DHT22;2107;52.306;10.484;2022-08-19T06:29:17;19.00;99.90
4187;DHT22;2107;52.306;10.484;2022-08-19T06:31:47;19.10;99.90
4187;DHT22;2107;52.306;10.484;2022-08-19T06:34:16;19.20;99.90
4187;DHT22;2107;52.306;10.484;2022-08-19T06:36:45;19.30;99.90
4187;DHT22;2107;52.306;10.484;2022-08-19T06:39:16;19.20;99.90
4187;DHT22;2107;52.306;10.484;2022-08-19T06:41:46;19.10;99.90
4187;DHT22;2107;52.306;10.484;2022-08-19T06:44:15;19.10;99.90
4187;DHT22;2107;52.306;10.484;2022-08-19T06:46:42;19.10;99.90
4187;DHT22;2107;52.306;10.484;2022-08-19T06:49:10;19.00;99.90
4187;DHT22;2107;52.306;10.484;2022-08-19T06:51:40;19.00;99.90
4187;DHT22;2107;52.306;10.484;2022-08-19T06:54:07;19.00;99.90
4187;DHT22;2107;52.306;10.484;2022-08-19T06:56:35;19.00;99.90
4187;DHT22;2107;52.306;10.484;2022-08-19T06:59:03;19.00;99.90
4187;DHT22;2107;52.306;10.484;2022-08-19T07:01:34;19.00;99.90
4187;DHT22;2107;52.306;10.484;2022-08-19T07:04:04;19.00;99.90
4187;DHT22;2107;52.306;10.484;2022-08-19T07:06:31;19.10;99.90
4187;DHT22;2107;52.306;10.484;2022-08-19T07:08:58;19.00;99.90
4187;DHT22;2107;52.306;10.484;2022-08-19T07:11:25;19.00;99.90
4187;DHT22;2107;52.306;10.484;2022-08-19T07:13:52;19.00;99.90
4187;DHT22;2107;52.306;10.484;2022-08-19T07:16:21;19.10;99.90
4187;DHT22;2107;52.306;10.484;2022-08-19T07:18:52;19.20;99.90
4187;DHT22;2107;52.306;10.484;2022-08-19T07:21:21;19.10;99.90
4187;DHT22;2107;52.306;10.484;2022-08-19T07:23:50;19.10;99.90
4187;DHT22;2107;52.306;10.484;2022-08-19T07:26:20;19.30;99.90
4187;DHT22;2107;52.306;10.484;2022-08-19T07:28:48;19.30;99.90
4187;DHT22;2107;52.306;10.484;2022-08-19T07:31:18;19.30;99.90
4187;DHT22;2107;52.306;10.484;2022-08-19T07:33:47;19.40;99.90
4187;DHT22;2107;52.306;10.484;2022-08-19T07:36:17;19.40;99.90
4187;DHT22;2107;52.306;10.484;2022-08-19T07:38:46;19.50;99.90
4187;DHT22;2107;52.306;10.484;2022-08-19T07:41:15;19.50;99.90
4187;DHT22;2107;52.306;10.484;2022-08-19T07:43:42;19.50;99.90
4187;DHT22;2107;52.306;10.484;2022-08-19T07:46:10;19.50;99.90
4187;DHT22;2107;52.306;10.484;2022-08-19T07:48:37;19.40;99.90
4187;DHT22;2107;52.306;10.484;2022-08-19T07:51:06;19.50;99.90
4187;DHT22;2107;52.306;10.484;2022-08-19T07:53:36;19.60;99.90
4187;DHT22;2107;52.306;10.484;2022-08-19T07:56:05;19.60;99.90
4187;DHT22;2107;52.306;10.484;2022-08-19T07:58:35;19.60;99.90
4187;DHT22;2107;52.306;10.484;2022-08-19T08:01:05;19.60;99.90
4187;DHT22;2107;52.306;10.484;2022-08-19T08:03:32;19.50;99.90
4187;DHT22;2107;52.306;10.484;2022-08-19T08:06:17;19.60;99.90
4187;DHT22;2107;52.306;10.484;2022-08-19T08:09:04;19.60;99.90
4187;DHT22;2107;52.306;10.484;2022-08-19T08:11:49;19.70;99.90
4187;DHT22;2107;52.306;10.484;2022-08-19T08:14:17;19.70;99.90
4187;DHT22;2107;52.306;10.484;2022-08-19T08:16:45;19.70;99.90
4187;DHT22;2107;52.306;10.484;2022-08-19T08:19:13;19.90;99.90
4187;DHT22;2107;52.306;10.484;2022-08-19T08:21:41;19.90;99.90
4187;DHT22;2107;52.306;10.484;2022-08-19T08:24:11;20.10;99.90
4187;DHT22;2107;52.306;10.484;2022-08-19T08:26:38;20.20;99.90
4187;DHT22;2107;52.306;10.484;2022-08-19T08:29:06;20.20;99.90
4187;DHT22;2107;52.306;10.484;2022-08-19T08:31:38;20.50;99.90
4187;DHT22;2107;52.306;10.484;2022-08-19T08:34:05;20.80;99.90
4187;DHT22;2107;52.306;10.484;2022-08-19T08:36:35;21.00;99.90
4187;DHT22;2107;52.306;10.484;2022-08-19T08:39:03;21.20;99.90
4187;DHT22;2107;52.306;10.484;2022-08-19T08:41:37;21.20;99.90
4187;DHT22;2107;52.306;10.484;2022-08-19T08:44:13;21.40;99.90
4187;DHT22;2107;52.306;10.484;2022-08-19T08:46:45;21.50;99.90
4187;DHT22;2107;52.306;10.484;2022-08-19T08:49:23;21.40;99.90
4187;DHT22;2107;52.306;10.484;2022-08-19T08:51:57;21.40;99.90
4187;DHT22;2107;52.306;10.484;2022-08-19T08:54:30;21.50;99.90
4187;DHT22;2107;52.306;10.484;2022-08-19T08:57:00;21.30;99.90
4187;DHT22;2107;52.306;10.484;2022-08-19T08:59:31;21.50;99.90
4187;DHT22;2107;52.306;10.484;2022-08-19T09:02:00;21.30;99.90
4187;DHT22;2107;52.306;10.484;2022-08-19T09:04:28;21.50;99.90
4187;DHT22;2107;52.306;10.484;2022-08-19T09:07:02;21.50;99.90
4187;DHT22;2107;52.306;10.484;2022-08-19T09:09:35;21.60;99.90
4187;DHT22;2107;52.306;10.484;2022-08-19T09:12:11;21.90;99.90
4187;DHT22;2107;52.306;10.484;2022-08-19T09:14:48;21.90;99.90
4187;DHT22;2107;52.306;10.484;2022-08-19T09:17:17;22.10;99.90
4187;DHT22;2107;52.306;10.484;2022-08-19T09:19:50;21.90;99.90
4187;DHT22;2107;52.306;10.484;2022-08-19T09:22:18;21.90;99.90
4187;DHT22;2107;52.306;10.484;2022-08-19T09:24:48;21.60;99.90
4187;DHT22;2107;52.306;10.484;2022-08-19T09:27:23;21.60;99.90
4187;DHT22;2107;52.306;10.484;2022-08-19T09:29:51;21.80;99.90
4187;DHT22;2107;52.306;10.484;2022-08-19T09:32:19;21.60;99.90
4187;DHT22;2107;52.306;10.484;2022-08-19T09:34:46;21.50;99.90
4187;DHT22;2107;52.306;10.484;2022-08-19T09:37:13;21.50;99.90
4187;DHT22;2107;52.306;10.484;2022-08-19T09:39:41;21.40;99.90
4187;DHT22;2107;52.306;10.484;2022-08-19T09:42:08;21.50;99.90
4187;DHT22;2107;52.306;10.484;2022-08-19T09:44:39;21.40;99.90
4187;DHT22;2107;52.306;10.484;2022-08-19T09:47:06;21.40;99.90
4187;DHT22;2107;52.306;10.484;2022-08-19T09:49:34;21.30;99.90
4187;DHT22;2107;52.306;10.484;2022-08-19T09:52:01;21.40;99.90
4187;DHT22;2107;52.306;10.484;2022-08-19T09:54:28;21.30;99.90
4187;DHT22;2107;52.306;10.484;2022-08-19T09:56:57;21.50;99.90
4187;DHT22;2107;52.306;10.484;2022-08-19T09:59:26;21.70;99.90
4187;DHT22;2107;52.306;10.484;2022-08-19T10:01:54;21.60;99.90
4187;DHT22;2107;52.306;10.484;2022-08-19T10:04:22;21.60;99.90
4187;DHT22;2107;52.306;10.484;2022-08-19T10:07:09;21.60;99.90
4187;DHT22;2107;52.306;10.484;2022-08-19T10:09:35;21.60;99.90
4187;DHT22;2107;52.306;10.484;2022-08-19T10:12:03;21.50;99.90
4187;DHT22;2107;52.306;10.484;2022-08-19T10:14:31;21.60;99.90
4187;DHT22;2107;52.306;10.484;2022-08-19T10:16:59;21.70;99.90
4187;DHT22;2107;52.306;10.484;2022-08-19T10:19:28;22.00;99.90
4187;DHT22;2107;52.306;10.484;2022-08-19T10:22:03;22.10;99.90
4187;DHT22;2107;52.306;10.484;2022-08-19T10:24:30;22.50;99.90
4187;DHT22;2107;52.306;10.484;2022-08-19T10:26:57;22.40;99.90
4187;DHT22;2107;52.306;10.484;2022-08-19T10:29:24;22.90;99.90
4187;DHT22;2107;52.306;10.484;2022-08-19T10:31:53;23.40;99.90
4187;DHT22;2107;52.306;10.484;2022-08-19T10:34:23;23.80;99.90
4187;DHT22;2107;52.306;10.484;2022-08-19T10:36:50;24.20;99.90
4187;DHT22;2107;52.306;10.484;2022-08-19T10:39:17;25.00;99.90
4187;DHT22;2107;52.306;10.484;2022-08-19T10:41:44;25.70;99.90
4187;DHT22;2107;52.306;10.484;2022-08-19T10:44:12;25.60;99.90
4187;DHT22;2107;52.306;10.484;2022-08-19T10:46:42;25.80;99.90
4187;DHT22;2107;52.306;10.484;2022-08-19T10:49:13;25.90;99.90
4187;DHT22;2107;52.306;10.484;2022-08-19T10:51:41;25.90;99.90
4187;DHT22;2107;52.306;10.484;2022-08-19T10:54:27;25.90;99.90
4187;DHT22;2107;52.306;10.484;2022-08-19T10:57:08;26.20;99.90
4187;DHT22;2107;52.306;10.484;2022-08-19T10:59:35;25.90;99.90
4187;DHT22;2107;52.306;10.484;2022-08-19T11:02:05;25.20;99.90
4187;DHT22;2107;52.306;10.484;2022-08-19T11:04:33;25.90;99.90
4187;DHT22;2107;52.306;10.484;2022-08-19T11:07:01;26.10;99.90
4187;DHT22;2107;52.306;10.484;2022-08-19T11:09:29;26.40;99.90
4187;DHT22;2107;52.306;10.484;2022-08-19T11:11:56;26.50;99.90
4187;DHT22;2107;52.306;10.484;2022-08-19T11:14:23;26.80;99.90
4187;DHT22;2107;52.306;10.484;2022-08-19T11:16:51;26.90;99.90
4187;DHT22;2107;52.306;10.484;2022-08-19T11:19:22;27.20;99.90
4187;DHT22;2107;52.306;10.484;2022-08-19T11:21:51;27.30;99.90
4187;DHT22;2107;52.306;10.484;2022-08-19T11:24:22;27.40;99.90
4187;DHT22;2107;52.306;10.484;2022-08-19T11:26:52;26.80;99.90
4187;DHT22;2107;52.306;10.484;2022-08-19T11:29:22;27.00;99.90
4187;DHT22;2107;52.306;10.484;2022-08-19T11:31:51;27.10;99.90
4187;DHT22;2107;52.306;10.484;2022-08-19T11:34:20;27.10;99.90
4187;DHT22;2107;52.306;10.484;2022-08-19T11:36:49;26.90;99.90
4187;DHT22;2107;52.306;10.484;2022-08-19T11:39:18;26.80;99.90
4187;DHT22;2107;52.306;10.484;2022-08-19T11:41:47;26.80;99.90
4187;DHT22;2107;52.306;10.484;2022-08-19T11:44:14;27.20;99.90
4187;DHT22;2107;52.306;10.484;2022-08-19T11:46:46;27.30;99.90
4187;DHT22;2107;52.306;10.484;2022-08-19T11:49:13;27.30;99.90
4187;DHT22;2107;52.306;10.484;2022-08-19T11:51:41;27.50;99.90
4187;DHT22;2107;52.306;10.484;2022-08-19T11:54:09;27.30;99.90
4187;DHT22;2107;52.306;10.484;2022-08-19T11:56:37;27.30;99.90
4187;DHT22;2107;52.306;10.484;2022-08-19T11:59:05;27.70;99.90
4187;DHT22;2107;52.306;10.484;2022-08-19T12:01:36;28.50;99.90
4187;DHT22;2107;52.306;10.484;2022-08-19T12:04:06;29.10;99.90
4187;DHT22;2107;52.306;10.484;2022-08-19T12:06:33;29.20;99.90
4187;DHT22;2107;52.306;10.484;2022-08-19T12:09:06;28.90;99.90
4187;DHT22;2107;52.306;10.484;2022-08-19T12:11:34;29.80;99.90
4187;DHT22;2107;52.306;10.484;2022-08-19T12:14:02;30.60;99.90
4187;DHT22;2107;52.306;10.484;2022-08-19T12:16:31;30.90;99.90
4187;DHT22;2107;52.306;10.484;2022-08-19T12:18:59;31.60;99.90
4187;DHT22;2107;52.306;10.484;2022-08-19T12:21:30;31.20;99.90
4187;DHT22;2107;52.306;10.484;2022-08-19T12:24:00;30.90;99.90
4187;DHT22;2107;52.306;10.484;2022-08-19T12:26:29;30.90;99.90
4187;DHT22;2107;52.306;10.484;2022-08-19T12:28:57;31.00;99.90
4187;DHT22;2107;52.306;10.484;2022-08-19T12:31:26;31.20;99.90
4187;DHT22;2107;52.306;10.484;2022-08-19T12:33:55;31.60;99.60
4187;DHT22;2107;52.306;10.484;2022-08-19T12:36:23;31.50;88.90
4187;DHT22;2107;52.306;10.484;2022-08-19T12:38:51;31.20;99.90
4187;DHT22;2107;52.306;10.484;2022-08-19T12:41:18;31.00;99.90
4187;DHT22;2107;52.306;10.484;2022-08-19T12:43:47;31.20;99.90
4187;DHT22;2107;52.306;10.484;2022-08-19T12:46:15;31.70;99.90
4187;DHT22;2107;52.306;10.484;2022-08-19T12:48:42;31.70;99.90
4187;DHT22;2107;52.306;10.484;2022-08-19T12:51:14;31.70;99.90
4187;DHT22;2107;52.306;10.484;2022-08-19T12:53:42;32.10;99.90
4187;DHT22;2107;52.306;10.484;2022-08-19T12:56:11;32.00;99.90
4187;DHT22;2107;52.306;10.484;2022-08-19T12:58:40;31.70;99.90
4187;DHT22;2107;52.306;10.484;2022-08-19T13:01:09;31.60;99.90
4187;DHT22;2107;52.306;10.484;2022-08-19T13:03:36;32.00;99.90
4187;DHT22;2107;52.306;10.484;2022-08-19T13:06:04;31.50;99.90
4187;DHT22;2107;52.306;10.484;2022-08-19T13:08:32;31.80;99.90
4187;DHT22;2107;52.306;10.484;2022-08-19T13:11:07;32.00;99.90
4187;DHT22;2107;52.306;10.484;2022-08-19T13:13:38;31.60;99.90
4187;DHT22;2107;52.306;10.484;2022-08-19T13:16:07;32.80;99.90
4187;DHT22;2107;52.306;10.484;2022-08-19T13:18:34;33.60;99.90
4187;DHT22;2107;52.306;10.484;2022-08-19T13:21:02;34.10;99.90
4187;DHT22;2107;52.306;10.484;2022-08-19T13:23:32;33.90;99.90
4187;DHT22;2107;52.306;10.484;2022-08-19T13:26:00;34.10;99.90
4187;DHT22;2107;52.306;10.484;2022-08-19T13:28:28;35.00;99.90
4187;DHT22;2107;52.306;10.484;2022-08-19T13:31:17;36.10;99.90
4187;DHT22;2107;52.306;10.484;2022-08-19T13:34:02;36.20;99.90
4187;DHT22;2107;52.306;10.484;2022-08-19T13:36:29;35.80;99.90
4187;DHT22;2107;52.306;10.484;2022-08-19T13:38:58;36.70;99.90
4187;DHT22;2107;52.306;10.484;2022-08-19T13:41:25;36.00;99.90
4187;DHT22;2107;52.306;10.484;2022-08-19T13:43:52;36.00;99.90
4187;DHT22;2107;52.306;10.484;2022-08-19T13:46:20;36.80;99.90
4187;DHT22;2107;52.306;10.484;2022-08-19T13:48:47;37.20;99.90
4187;DHT22;2107;52.306;10.484;2022-08-19T13:51:15;37.50;99.90
4187;DHT22;2107;52.306;10.484;2022-08-19T13:53:43;38.40;99.90
4187;DHT22;2107;52.306;10.484;2022-08-19T13:56:16;38.00;99.90
4187;DHT22;2107;52.306;10.484;2022-08-19T13:58:45;37.40;99.90
4187;DHT22;2107;52.306;10.484;2022-08-19T14:01:19;36.90;99.90
4187;DHT22;2107;52.306;10.484;2022-08-19T14:03:46;38.10;99.90
4187;DHT22;2107;52.306;10.484;2022-08-19T14:06:13;36.70;99.90
4187;DHT22;2107;52.306;10.484;2022-08-19T14:08:40;37.70;99.90
4187;DHT22;2107;52.306;10.484;2022-08-19T14:11:08;38.00;99.90
4187;DHT22;2107;52.306;10.484;2022-08-19T14:13:36;37.30;99.90
4187;DHT22;2107;52.306;10.484;2022-08-19T14:16:11;37.90;99.90
4187;DHT22;2107;52.306;10.484;2022-08-19T14:18:39;39.00;99.90
4187;DHT22;2107;52.306;10.484;2022-08-19T14:21:06;39.00;99.90
4187;DHT22;2107;52.306;10.484;2022-08-19T14:23:34;38.50;99.90
4187;DHT22;2107;52.306;10.484;2022-08-19T14:26:06;38.70;99.90
4187;DHT22;2107;52.306;10.484;2022-08-19T14:28:33;38.80;99.90
4187;DHT22;2107;52.306;10.484;2022-08-19T14:31:02;38.00;99.90
4187;DHT22;2107;52.306;10.484;2022-08-19T14:33:29;38.70;99.90
4187;DHT22;2107;52.306;10.484;2022-08-19T14:35:57;39.20;99.90
4187;DHT22;2107;52.306;10.484;2022-08-19T14:38:26;38.20;99.90
4187;DHT22;2107;52.306;10.484;2022-08-19T14:41:06;37.40;99.90
4187;DHT22;2107;52.306;10.484;2022-08-19T14:43:33;38.30;99.90
4187;DHT22;2107;52.306;10.484;2022-08-19T14:46:01;38.50;99.90
4187;DHT22;2107;52.306;10.484;2022-08-19T14:48:28;38.60;99.90
4187;DHT22;2107;52.306;10.484;2022-08-19T14:50:56;38.30;99.90
4187;DHT22;2107;52.306;10.484;2022-08-19T14:53:23;38.50;99.90
4187;DHT22;2107;52.306;10.484;2022-08-19T14:55:51;38.30;99.90
4187;DHT22;2107;52.306;10.484;2022-08-19T14:58:18;38.70;99.90
4187;DHT22;2107;52.306;10.484;2022-08-19T15:00:45;38.80;99.90
4187;DHT22;2107;52.306;10.484;2022-08-19T15:03:13;38.90;99.90
4187;DHT22;2107;52.306;10.484;2022-08-19T15:05:40;38.00;99.90
4187;DHT22;2107;52.306;10.484;2022-08-19T15:08:07;38.10;99.90
4187;DHT22;2107;52.306;10.484;2022-08-19T15:10:34;39.20;99.90
4187;DHT22;2107;52.306;10.484;2022-08-19T15:13:01;38.30;99.90
4187;DHT22;2107;52.306;10.484;2022-08-19T15:15:28;39.00;99.90
4187;DHT22;2107;52.306;10.484;2022-08-19T15:17:55;38.90;99.90
4187;DHT22;2107;52.306;10.484;2022-08-19T15:20:29;39.30;99.90
4187;DHT22;2107;52.306;10.484;2022-08-19T15:22:56;38.60;99.90
4187;DHT22;2107;52.306;10.484;2022-08-19T15:25:24;38.10;99.90
4187;DHT22;2107;52.306;10.484;2022-08-19T15:27:52;38.80;99.90
4187;DHT22;2107;52.306;10.484;2022-08-19T15:30:21;38.20;99.90
4187;DHT22;2107;52.306;10.484;2022-08-19T15:32:49;36.50;99.90
4187;DHT22;2107;52.306;10.484;2022-08-19T15:35:18;36.40;99.90
4187;DHT22;2107;52.306;10.484;2022-08-19T15:37:48;36.80;99.90
4187;DHT22;2107;52.306;10.484;2022-08-19T15:40:17;36.70;99.90
4187;DHT22;2107;52.306;10.484;2022-08-19T15:42:44;36.90;99.90
4187;DHT22;2107;52.306;10.484;2022-08-19T15:45:13;36.70;99.90
4187;DHT22;2107;52.306;10.484;2022-08-19T15:47:41;36.10;99.90
4187;DHT22;2107;52.306;10.484;2022-08-19T15:50:10;34.10;99.90
4187;DHT22;2107;52.306;10.484;2022-08-19T15:52:42;32.30;99.90
4187;DHT22;2107;52.306;10.484;2022-08-19T15:55:11;31.60;99.90